createdAt,value
2019-04-20T00:02:14.378Z,0.87
2019-04-20T00:04:37.466Z,0.20
2019-04-20T00:07:04.007Z,0.10
2019-04-20T00:09:34.808Z,0.13
2019-04-20T00:12:06.888Z,0.20
2019-04-20T00:14:30.928Z,0.10
2019-04-20T00:16:54.726Z,0.73
2019-04-20T00:19:26.142Z,0.20
2019-04-20T00:21:58.593Z,0.10
2019-04-20T00:24:38.964Z,0.10
2019-04-20T00:27:34.975Z,0.20
2019-04-20T00:29:54.761Z,0.50
2019-04-20T00:32:15.537Z,0.20
2019-04-20T00:34:37.221Z,0.10
2019-04-20T00:37:00.379Z,0.20
2019-04-20T00:39:27.867Z,0.30
2019-04-20T00:42:00.308Z,0.20
2019-04-20T00:44:28.606Z,0.20
2019-04-20T00:47:04.753Z,0.10
2019-04-20T00:49:34.975Z,0.10
2019-04-20T00:52:13.154Z,0.20
2019-04-20T00:54:15.982Z,0.20
2019-04-20T00:56:43.391Z,0.20
2019-04-20T00:59:25.802Z,0.10
2019-04-20T01:02:00.278Z,0.10
2019-04-20T01:04:23.884Z,0.10
2019-04-20T01:06:58.971Z,0.57
2019-04-20T01:09:18.269Z,0.20
2019-04-20T01:11:47.874Z,0.10
2019-04-20T01:14:14.584Z,0.73
2019-04-20T01:16:46.997Z,0.10
2019-04-20T01:19:08.888Z,0.20
2019-04-20T01:21:35.523Z,0.20
2019-04-20T01:24:07.932Z,0.17
2019-04-20T01:26:31.414Z,0.20
2019-04-20T01:29:09.019Z,0.20
2019-04-20T01:31:35.545Z,0.30
2019-04-20T01:34:03.197Z,0.20
2019-04-20T01:36:43.049Z,0.10
2019-04-20T01:39:02.738Z,0.20
2019-04-20T01:41:18.332Z,0.20
2019-04-20T01:43:44.475Z,0.20
2019-04-20T01:46:15.748Z,0.20
2019-04-20T01:48:41.510Z,0.20
2019-04-20T01:51:16.462Z,0.10
2019-04-20T01:53:46.482Z,0.20
2019-04-20T01:56:18.352Z,0.20
2019-04-20T01:58:58.222Z,0.13
2019-04-20T02:01:23.040Z,0.80
2019-04-20T02:03:50.507Z,0.20
2019-04-20T02:06:22.749Z,0.20
2019-04-20T02:08:52.879Z,0.10
2019-04-20T02:11:21.954Z,0.20
2019-04-20T02:13:51.288Z,0.20
2019-04-20T02:16:22.631Z,0.20
2019-04-20T02:18:59.144Z,0.20
2019-04-20T02:21:25.832Z,0.50
2019-04-20T02:23:46.206Z,0.20
2019-04-20T02:26:05.135Z,0.20
2019-04-20T02:28:58.591Z,0.20
2019-04-20T02:34:04.030Z,0.20
2019-04-20T02:36:51.210Z,1.17
2019-04-20T02:46:31.601Z,1.80
2019-04-20T02:49:12.921Z,0.10
2019-04-20T02:51:33.801Z,0.20
2019-04-20T02:54:14.092Z,0.20
2019-04-20T02:56:31.942Z,0.10
2019-04-20T02:59:14.770Z,0.20
2019-04-20T03:01:26.707Z,0.10
2019-04-20T03:03:39.071Z,0.20
2019-04-20T03:06:13.355Z,0.20
2019-04-20T03:08:51.593Z,0.10
2019-04-20T03:11:21.229Z,0.10
2019-04-20T03:13:44.061Z,0.10
2019-04-20T03:16:12.407Z,0.20
2019-04-20T03:18:39.912Z,0.10
2019-04-20T03:21:12.893Z,0.20
2019-04-20T03:23:42.830Z,0.10
2019-04-20T03:26:12.807Z,0.20
2019-04-20T03:28:42.945Z,0.17
2019-04-20T03:31:59.569Z,0.20
2019-04-20T03:36:44.666Z,0.20
2019-04-20T03:38:57.284Z,0.10
2019-04-20T03:41:18.297Z,0.20
2019-04-20T03:43:35.375Z,0.10
2019-04-20T03:46:07.511Z,0.10
2019-04-20T03:48:48.377Z,0.20
2019-04-20T03:51:26.837Z,1.40
2019-04-20T03:54:05.164Z,0.20
2019-04-20T03:56:35.194Z,0.10
2019-04-20T03:59:16.083Z,0.20
2019-04-20T04:04:25.711Z,0.20
2019-04-20T04:06:39.312Z,12.70
2019-04-20T04:09:14.734Z,0.30
2019-04-20T04:11:46.117Z,0.20
2019-04-20T04:13:56.673Z,0.17
2019-04-20T04:16:27.807Z,0.13
2019-04-20T04:19:01.438Z,0.10
2019-04-20T04:21:35.511Z,0.20
2019-04-20T04:24:02.453Z,0.10
2019-04-20T04:26:32.289Z,0.20
2019-04-20T04:29:08.311Z,0.20
2019-04-20T04:31:34.993Z,0.10
2019-04-20T04:33:59.339Z,0.20
2019-04-20T04:36:21.170Z,0.20
2019-04-20T04:39:05.438Z,0.20
2019-04-20T04:41:36.685Z,0.20
2019-04-20T04:43:51.093Z,0.10
2019-04-20T04:46:01.716Z,0.10
2019-04-20T04:48:34.659Z,0.10
2019-04-20T04:51:02.729Z,0.10
2019-04-20T04:53:38.865Z,0.53
2019-04-20T04:55:58.570Z,0.20
2019-04-20T04:58:21.637Z,0.10
2019-04-20T05:00:49.353Z,0.10
2019-04-20T05:03:35.106Z,0.10
2019-04-20T05:06:06.606Z,2.87
2019-04-20T05:08:24.051Z,0.10
2019-04-20T05:10:43.650Z,0.40
2019-04-20T05:13:11.308Z,2.83
2019-04-20T05:15:57.337Z,0.20
2019-04-20T05:18:34.418Z,0.20
2019-04-20T05:21:03.192Z,0.10
2019-04-20T05:23:32.035Z,1.67
2019-04-20T05:26:22.671Z,0.10
2019-04-20T05:28:48.339Z,0.20
2019-04-20T05:31:11.121Z,0.13
2019-04-20T05:34:03.927Z,0.10
2019-04-20T05:36:24.742Z,0.20
2019-04-20T05:38:59.038Z,0.30
2019-04-20T05:41:16.651Z,0.20
2019-04-20T05:43:56.321Z,0.20
2019-04-20T05:46:26.292Z,0.20
2019-04-20T05:48:57.875Z,0.10
2019-04-20T05:51:29.527Z,0.20
2019-04-20T05:53:54.750Z,0.10
2019-04-20T05:56:17.319Z,0.40
2019-04-20T05:58:49.585Z,0.37
2019-04-20T06:01:22.862Z,0.10
2019-04-20T06:03:45.088Z,0.10
2019-04-20T06:06:15.098Z,0.20
2019-04-20T06:08:50.453Z,0.50
2019-04-20T06:11:13.383Z,0.20
2019-04-20T06:13:37.908Z,0.10
2019-04-20T06:16:33.276Z,0.20
2019-04-20T06:19:06.342Z,0.20
2019-04-20T06:21:53.056Z,0.20
2019-04-20T06:24:02.627Z,0.13
2019-04-20T06:26:56.570Z,0.20
2019-04-20T06:29:16.328Z,0.23
2019-04-20T06:31:45.934Z,0.20
2019-04-20T06:36:57.299Z,0.10
2019-04-20T06:44:24.169Z,0.20
2019-04-20T06:46:52.451Z,1.03
2019-04-20T06:49:24.437Z,0.20
2019-04-20T06:54:39.447Z,0.20
2019-04-20T06:57:07.298Z,0.20
2019-04-20T06:59:40.786Z,0.10
2019-04-20T07:02:11.147Z,0.20
2019-04-20T07:07:03.714Z,0.93
2019-04-20T07:09:42.263Z,0.20
2019-04-20T07:11:50.474Z,0.40
2019-04-20T07:14:08.209Z,0.20
2019-04-20T07:17:09.650Z,0.20
2019-04-20T07:19:37.223Z,0.20
2019-04-20T07:22:23.122Z,0.20
2019-04-20T07:24:43.120Z,0.20
2019-04-20T07:27:06.122Z,0.13
2019-04-20T07:29:43.179Z,0.20
2019-04-20T07:31:57.698Z,3.93
2019-04-20T07:34:26.160Z,0.67
2019-04-20T07:37:17.743Z,6.03
2019-04-20T07:39:32.943Z,3.30
2019-04-20T07:42:00.613Z,0.20
2019-04-20T07:48:22.288Z,0.20
2019-04-20T07:50:40.920Z,0.20
2019-04-20T07:53:13.589Z,0.20
2019-04-20T07:59:25.332Z,0.93
2019-04-20T08:09:07.166Z,0.17
2019-04-20T08:11:48.768Z,1.10
2019-04-20T08:14:22.743Z,0.10
2019-04-20T08:17:09.147Z,0.20
2019-04-20T08:29:54.303Z,0.20
2019-04-20T08:32:32.455Z,0.20
2019-04-20T08:35:05.615Z,0.20
2019-04-20T08:37:28.022Z,0.20
2019-04-20T08:40:02.912Z,0.20
2019-04-20T08:42:31.290Z,0.20
2019-04-20T08:47:35.112Z,0.20
2019-04-20T08:50:19.297Z,0.20
2019-04-20T08:53:06.874Z,0.20
2019-04-20T08:55:05.328Z,0.20
2019-04-20T08:57:17.890Z,0.20
2019-04-20T08:59:48.247Z,0.20
2019-04-20T09:02:15.722Z,0.30
2019-04-20T09:04:47.854Z,0.20
2019-04-20T09:07:15.260Z,0.30
2019-04-20T09:10:00.781Z,0.20
2019-04-20T09:12:23.238Z,0.20
2019-04-20T09:14:36.746Z,0.20
2019-04-20T09:17:07.957Z,1.80
2019-04-20T09:19:39.914Z,0.20
2019-04-20T09:22:28.022Z,0.20
2019-04-20T09:25:13.248Z,0.40
2019-04-20T09:27:26.907Z,0.20
2019-04-20T09:30:00.212Z,0.20
2019-04-20T09:32:35.964Z,0.20
2019-04-20T09:35:07.815Z,0.20
2019-04-20T09:37:39.469Z,0.20
2019-04-20T09:40:21.545Z,0.20
2019-04-20T09:42:34.766Z,0.20
2019-04-20T09:45:04.136Z,0.20
2019-04-20T09:47:37.044Z,0.20
2019-04-20T09:50:08.965Z,0.20
2019-04-20T09:52:45.735Z,0.17
2019-04-20T09:55:09.229Z,0.20
2019-04-20T09:57:38.084Z,0.20
2019-04-20T10:00:05.403Z,0.33
2019-04-20T10:02:24.000Z,1.43
2019-04-20T10:04:47.217Z,0.20
2019-04-20T10:07:17.737Z,2.33
2019-04-20T10:09:44.976Z,0.30
2019-04-20T10:12:11.168Z,0.20
2019-04-20T10:14:38.486Z,0.20
2019-04-20T10:17:05.715Z,0.83
2019-04-20T10:19:34.667Z,0.20
2019-04-20T10:22:00.409Z,0.27
2019-04-20T10:24:26.880Z,11.40
2019-04-20T10:26:54.493Z,8.53
2019-04-20T10:29:21.609Z,7.17
2019-04-20T10:31:54.579Z,7.43
2019-04-20T10:34:17.648Z,7.93
2019-04-20T10:36:46.216Z,7.90
2019-04-20T10:39:12.878Z,7.73
2019-04-20T10:41:47.707Z,6.53
2019-04-20T10:44:07.292Z,4.77
2019-04-20T10:46:33.490Z,5.73
2019-04-20T10:49:03.816Z,6.47
2019-04-20T10:51:29.244Z,8.53
2019-04-20T10:53:56.136Z,6.27
2019-04-20T10:56:23.258Z,7.00
2019-04-20T10:58:49.704Z,6.90
2019-04-20T11:01:16.048Z,8.23
2019-04-20T11:03:42.723Z,6.83
2019-04-20T11:06:09.116Z,6.47
2019-04-20T11:08:35.373Z,5.77
2019-04-20T11:11:10.893Z,6.03
2019-04-20T11:13:29.707Z,5.97
2019-04-20T11:15:56.670Z,5.97
2019-04-20T11:18:23.115Z,6.20
2019-04-20T11:20:49.391Z,3.93
2019-04-20T11:23:16.134Z,4.77
2019-04-20T11:25:42.345Z,5.53
2019-04-20T11:28:08.538Z,6.60
2019-04-20T11:30:36.221Z,6.10
2019-04-20T11:33:02.706Z,4.90
2019-04-20T11:35:34.477Z,4.90
2019-04-20T11:37:57.499Z,3.60
2019-04-20T11:40:23.864Z,5.80
2019-04-20T11:42:50.056Z,6.33
2019-04-20T11:45:16.438Z,6.90
2019-04-20T11:47:43.417Z,6.20
2019-04-20T11:50:11.381Z,5.80
2019-04-20T11:52:41.367Z,5.00
2019-04-20T11:55:08.480Z,5.80
2019-04-20T11:57:35.400Z,7.13
2019-04-20T12:00:03.579Z,5.23
2019-04-20T12:02:44.303Z,4.83
2019-04-20T12:05:27.334Z,3.87
2019-04-20T12:07:49.203Z,4.20
2019-04-20T12:10:22.201Z,3.43
2019-04-20T12:12:49.391Z,3.20
2019-04-20T12:15:14.752Z,3.53
2019-04-20T12:17:41.791Z,4.50
2019-04-20T12:20:08.274Z,4.60
2019-04-20T12:22:34.587Z,3.13
2019-04-20T12:25:00.733Z,3.93
2019-04-20T12:27:27.030Z,3.20
2019-04-20T12:29:54.013Z,2.73
2019-04-20T12:32:21.722Z,2.33
2019-04-20T12:34:49.500Z,2.43
2019-04-20T12:37:15.817Z,3.83
2019-04-20T12:39:42.888Z,6.50
2019-04-20T12:42:10.078Z,3.33
2019-04-20T12:44:37.669Z,4.13
2019-04-20T12:47:04.081Z,3.40
2019-04-20T12:49:31.635Z,3.50
2019-04-20T12:52:01.497Z,3.67
2019-04-20T12:54:26.910Z,2.93
2019-04-20T12:56:53.244Z,3.27
2019-04-20T12:59:19.434Z,2.70
2019-04-20T13:01:47.005Z,3.07
2019-04-20T13:04:14.403Z,2.80
2019-04-20T13:06:40.930Z,3.00
2019-04-20T13:09:10.731Z,2.90
2019-04-20T13:11:52.709Z,2.60
2019-04-20T13:14:48.538Z,2.70
2019-04-20T13:17:14.989Z,2.80
2019-04-20T13:19:41.534Z,3.30
2019-04-20T13:22:08.082Z,2.60
2019-04-20T13:24:34.655Z,4.07
2019-04-20T13:27:01.141Z,3.73
2019-04-20T13:29:27.406Z,3.20
2019-04-20T13:31:56.267Z,2.77
2019-04-20T13:34:22.241Z,3.03
2019-04-20T13:36:48.652Z,3.60
2019-04-20T13:39:14.915Z,4.37
2019-04-20T13:41:42.113Z,4.10
2019-04-20T13:44:08.507Z,4.07
2019-04-20T13:46:34.755Z,4.50
2019-04-20T13:49:00.944Z,3.50
2019-04-20T13:51:28.696Z,3.57
2019-04-20T13:53:55.312Z,2.93
2019-04-20T13:56:23.801Z,4.10
2019-04-20T13:59:03.985Z,3.20
2019-04-20T14:01:34.808Z,2.90
2019-04-20T14:04:14.957Z,2.80
2019-04-20T14:06:41.545Z,2.77
2019-04-20T14:09:07.743Z,3.07
2019-04-20T14:11:33.989Z,3.60
2019-04-20T14:14:03.178Z,3.23
2019-04-20T14:16:29.356Z,3.73
2019-04-20T14:18:55.640Z,3.30
2019-04-20T14:21:21.813Z,2.40
2019-04-20T14:23:48.611Z,3.87
2019-04-20T14:26:14.983Z,3.37
2019-04-20T14:28:41.155Z,4.60
2019-04-20T14:31:07.842Z,3.27
2019-04-20T14:33:34.869Z,3.77
2019-04-20T14:36:01.306Z,6.07
2019-04-20T14:38:28.499Z,4.17
2019-04-20T14:40:54.984Z,4.80
2019-04-20T14:43:22.322Z,3.93
2019-04-20T14:45:48.724Z,4.20
2019-04-20T14:48:14.924Z,4.77
2019-04-20T14:50:41.503Z,5.37
2019-04-20T14:53:07.658Z,5.07
2019-04-20T14:55:33.878Z,6.53
2019-04-20T14:58:01.966Z,5.13
2019-04-20T15:00:58.466Z,10.50
2019-04-20T15:03:26.683Z,5.50
2019-04-20T15:05:57.653Z,6.57
2019-04-20T15:08:24.883Z,5.60
2019-04-20T15:10:52.155Z,4.80
2019-04-20T15:13:18.586Z,3.70
2019-04-20T15:15:44.786Z,4.50
2019-04-20T15:18:13.443Z,6.27
2019-04-20T15:20:41.736Z,5.40
2019-04-20T15:23:09.875Z,5.70
2019-04-20T15:25:36.760Z,5.40
2019-04-20T15:28:03.189Z,6.00
2019-04-20T15:30:29.931Z,7.30
2019-04-20T15:32:56.893Z,6.23
2019-04-20T15:35:24.653Z,9.90
2019-04-20T15:37:51.271Z,16.43
2019-04-20T15:40:17.552Z,11.53
2019-04-20T15:42:56.188Z,7.53
2019-04-20T15:45:13.557Z,12.03
2019-04-20T15:47:40.259Z,11.83
2019-04-20T15:50:07.839Z,7.63
2019-04-20T15:52:37.582Z,30.93
2019-04-20T15:55:10.222Z,5.60
2019-04-20T15:57:33.178Z,12.70
2019-04-20T16:00:00.349Z,5.03
2019-04-20T16:02:29.450Z,8.67
2019-04-20T16:05:14.554Z,8.03
2019-04-20T16:07:49.876Z,7.67
2019-04-20T16:10:09.508Z,11.93
2019-04-20T16:12:35.949Z,7.73
2019-04-20T16:15:03.945Z,9.83
2019-04-20T16:17:36.718Z,8.57
2019-04-20T16:20:05.763Z,8.13
2019-04-20T16:22:28.904Z,9.10
2019-04-20T16:25:03.551Z,9.97
2019-04-20T16:27:34.233Z,8.80
2019-04-20T16:30:02.046Z,9.63
2019-04-20T16:32:30.087Z,9.47
2019-04-20T16:34:56.722Z,9.40
2019-04-20T16:37:24.459Z,9.87
2019-04-20T16:39:50.825Z,10.50
2019-04-20T16:42:18.243Z,15.80
2019-04-20T16:44:45.245Z,18.37
2019-04-20T16:47:12.308Z,16.13
2019-04-20T16:49:39.067Z,11.70
2019-04-20T16:52:05.623Z,13.40
2019-04-20T16:54:32.134Z,13.20
2019-04-20T16:56:58.494Z,16.67
2019-04-20T16:59:24.840Z,21.90
2019-04-20T17:01:51.191Z,23.97
2019-04-20T17:04:22.238Z,20.10
2019-04-20T17:07:03.731Z,21.33
2019-04-20T17:09:29.991Z,14.33
2019-04-20T17:11:57.394Z,11.10
2019-04-20T17:14:25.575Z,14.30
2019-04-20T17:16:52.042Z,12.77
2019-04-20T17:19:19.696Z,10.90
2019-04-20T17:21:46.479Z,17.93
2019-04-20T17:24:13.482Z,16.40
2019-04-20T17:26:43.246Z,24.73
2019-04-20T17:29:12.182Z,19.50
2019-04-20T17:31:47.363Z,18.20
2019-04-20T17:34:31.259Z,15.13
2019-04-20T17:36:42.311Z,17.57
2019-04-20T17:39:11.992Z,17.97
2019-04-20T17:41:56.291Z,14.53
2019-04-20T17:44:20.920Z,13.00
2019-04-20T17:46:46.476Z,15.90
2019-04-20T17:49:15.863Z,11.17
2019-04-20T17:51:53.250Z,11.70
2019-04-20T17:54:12.390Z,12.57
2019-04-20T17:56:44.387Z,12.93
2019-04-20T17:59:12.359Z,11.53
2019-04-20T18:01:55.509Z,12.07
2019-04-20T18:04:44.254Z,12.10
2019-04-20T18:06:51.667Z,9.53
2019-04-20T18:09:34.517Z,11.60
2019-04-20T18:11:42.673Z,11.73
2019-04-20T18:14:24.162Z,11.77
2019-04-20T18:16:56.307Z,9.97
2019-04-20T18:19:13.809Z,12.23
2019-04-20T18:21:42.343Z,11.97
2019-04-20T18:24:14.167Z,10.97
2019-04-20T18:26:52.083Z,14.87
2019-04-20T18:29:26.078Z,16.67
2019-04-20T18:31:39.606Z,15.47
2019-04-20T18:34:13.156Z,13.83
2019-04-20T18:36:39.936Z,14.43
2019-04-20T18:39:09.933Z,24.13
2019-04-20T18:41:41.591Z,26.20
2019-04-20T18:44:02.639Z,24.60
2019-04-20T18:46:54.566Z,19.97
2019-04-20T18:49:13.628Z,27.43
2019-04-20T18:51:25.953Z,22.20
2019-04-20T18:53:53.914Z,21.20
2019-04-20T18:56:25.604Z,22.93
2019-04-20T18:58:49.170Z,24.63
2019-04-20T19:01:16.961Z,21.90
2019-04-20T19:03:45.549Z,23.13
2019-04-20T19:06:12.455Z,19.37
2019-04-20T19:08:44.843Z,17.90
2019-04-20T19:11:11.449Z,22.30
2019-04-20T19:13:44.648Z,21.03
2019-04-20T19:16:35.562Z,23.57
2019-04-20T19:19:20.131Z,28.83
2019-04-20T19:21:37.417Z,36.73
2019-04-20T19:24:09.246Z,41.90
2019-04-20T19:26:32.202Z,48.40
2019-04-20T19:29:11.934Z,41.33
2019-04-20T19:31:42.606Z,43.30
2019-04-20T19:34:11.782Z,41.30
2019-04-20T19:36:30.715Z,44.67
2019-04-20T19:39:06.024Z,34.40
2019-04-20T19:41:32.026Z,33.67
2019-04-20T19:44:02.448Z,28.73
2019-04-20T19:46:49.298Z,22.27
2019-04-20T19:48:53.996Z,19.93
2019-04-20T19:51:34.024Z,16.10
2019-04-20T19:54:03.674Z,16.70
2019-04-20T19:56:28.233Z,17.90
2019-04-20T19:58:53.686Z,16.27
2019-04-20T20:01:05.331Z,15.20
2019-04-20T20:03:33.351Z,13.47
2019-04-20T20:06:01.406Z,11.90
2019-04-20T20:08:32.695Z,12.53
2019-04-20T20:10:59.221Z,12.00
2019-04-20T20:13:31.680Z,11.83
2019-04-20T20:15:57.692Z,12.77
2019-04-20T20:18:35.587Z,12.07
2019-04-20T20:21:04.710Z,11.57
2019-04-20T20:23:16.546Z,11.63
2019-04-20T20:25:46.438Z,10.73
2019-04-20T20:28:20.258Z,9.57
2019-04-20T20:30:53.804Z,8.93
2019-04-20T20:33:26.708Z,8.33
2019-04-20T20:35:45.790Z,9.60
2019-04-20T20:38:14.857Z,8.20
2019-04-20T20:40:37.978Z,8.67
2019-04-20T20:43:11.113Z,6.63
2019-04-20T20:45:36.140Z,7.40
2019-04-20T20:48:17.738Z,8.33
2019-04-20T20:50:42.745Z,7.80
2019-04-20T20:53:07.680Z,7.10
2019-04-20T20:55:31.797Z,6.73
2019-04-20T20:58:00.622Z,7.73
2019-04-20T21:00:33.205Z,6.33
2019-04-20T21:02:52.917Z,6.27
2019-04-20T21:05:13.655Z,6.43
2019-04-20T21:07:40.532Z,5.83
2019-04-20T21:10:08.327Z,6.97
2019-04-20T21:12:36.385Z,6.53
2019-04-20T21:15:13.435Z,6.37
2019-04-20T21:17:46.440Z,7.17
2019-04-20T21:20:20.182Z,6.87
2019-04-20T21:22:57.065Z,6.73
2019-04-20T21:25:11.103Z,7.70
2019-04-20T21:27:37.271Z,7.03
2019-04-20T21:30:05.681Z,6.67
2019-04-20T21:32:39.628Z,6.70
2019-04-20T21:35:06.553Z,7.17
2019-04-20T21:37:29.011Z,6.80
2019-04-20T21:39:59.699Z,6.93
2019-04-20T21:42:26.799Z,7.80
2019-04-20T21:44:57.266Z,7.43
2019-04-20T21:47:25.524Z,7.73
2019-04-20T21:49:57.444Z,7.07
2019-04-20T21:52:24.935Z,6.70
2019-04-20T21:54:45.598Z,7.03
2019-04-20T21:57:14.315Z,7.30
2019-04-20T21:59:45.045Z,7.17
2019-04-20T22:02:15.059Z,6.30
2019-04-20T22:04:37.643Z,7.13
2019-04-20T22:07:04.659Z,9.00
2019-04-20T22:09:38.454Z,9.10
2019-04-20T22:12:00.186Z,9.60
2019-04-20T22:14:30.034Z,8.70
2019-04-20T22:16:56.858Z,9.40
2019-04-20T22:19:36.186Z,9.20
2019-04-20T22:22:02.527Z,10.73
2019-04-20T22:24:33.083Z,9.77
2019-04-20T22:26:58.981Z,10.00
2019-04-20T22:29:16.211Z,9.67
2019-04-20T22:31:46.108Z,10.27
2019-04-20T22:34:16.887Z,9.97
2019-04-20T22:36:44.801Z,10.43
2019-04-20T22:39:15.661Z,9.60
2019-04-20T22:41:50.791Z,10.40
2019-04-20T22:44:17.046Z,9.27
2019-04-20T22:46:43.701Z,10.10
2019-04-20T22:49:28.185Z,10.80
2019-04-20T22:51:49.577Z,11.43
2019-04-20T22:54:21.770Z,11.37
2019-04-20T22:56:47.090Z,11.17
2019-04-20T22:59:10.987Z,12.50
2019-04-20T23:01:37.736Z,12.00
2019-04-20T23:03:59.087Z,11.83
2019-04-20T23:06:33.372Z,11.17
2019-04-20T23:08:59.364Z,11.50
2019-04-20T23:11:26.978Z,12.23
2019-04-20T23:13:51.674Z,11.77
2019-04-20T23:16:18.061Z,11.10
2019-04-20T23:18:44.484Z,10.17
2019-04-20T23:21:13.796Z,8.70
2019-04-20T23:23:39.512Z,9.97
2019-04-20T23:26:07.158Z,8.90
2019-04-20T23:28:35.457Z,8.93
2019-04-20T23:31:08.341Z,7.77
2019-04-20T23:33:29.995Z,8.13
2019-04-20T23:35:59.150Z,8.83
2019-04-20T23:38:24.849Z,9.50
2019-04-20T23:40:52.133Z,8.07
2019-04-20T23:43:28.961Z,8.00
2019-04-20T23:46:17.225Z,7.97
2019-04-20T23:48:50.080Z,7.57
2019-04-20T23:51:39.080Z,8.30
2019-04-20T23:53:55.321Z,8.43
2019-04-20T23:56:17.000Z,8.67
2019-04-20T23:58:46.426Z,7.87
